sensor_id;sensor_type;location;lat;lon;timestamp;P1;durP1;ratioP1;P2;durP2;ratioP2
77432;SDS011;66752;48.576;8.876;2023-04-06T00:00:56;10.80;;;6.22;;
77432;SDS011;66752;48.576;8.876;2023-04-06T00:03:22;11.65;;;6.68;;
77432;SDS011;66752;48.576;8.876;2023-04-06T00:05:48;10.82;;;6.70;;
77432;SDS011;66752;48.576;8.876;2023-04-06T00:08:14;12.27;;;7.03;;
77432;SDS011;66752;48.576;8.876;2023-04-06T00:10:40;11.45;;;7.35;;
77432;SDS011;66752;48.576;8.876;2023-04-06T00:13:06;14.13;;;7.88;;
77432;SDS011;66752;48.576;8.876;2023-04-06T00:15:33;13.07;;;7.25;;
77432;SDS011;66752;48.576;8.876;2023-04-06T00:17:59;11.40;;;6.80;;
77432;SDS011;66752;48.576;8.876;2023-04-06T00:20:25;14.48;;;8.07;;
77432;SDS011;66752;48.576;8.876;2023-04-06T00:22:51;13.02;;;7.05;;
77432;SDS011;66752;48.576;8.876;2023-04-06T00:25:18;13.63;;;7.45;;
77432;SDS011;66752;48.576;8.876;2023-04-06T00:27:45;11.55;;;6.72;;
77432;SDS011;66752;48.576;8.876;2023-04-06T00:30:10;10.95;;;6.82;;
77432;SDS011;66752;48.576;8.876;2023-04-06T00:32:37;11.85;;;6.63;;
77432;SDS011;66752;48.576;8.876;2023-04-06T00:35:03;9.90;;;6.38;;
77432;SDS011;66752;48.576;8.876;2023-04-06T00:37:29;12.90;;;6.40;;
77432;SDS011;66752;48.576;8.876;2023-04-06T00:39:55;12.18;;;6.18;;
77432;SDS011;66752;48.576;8.876;2023-04-06T00:42:22;11.95;;;5.55;;
77432;SDS011;66752;48.576;8.876;2023-04-06T00:44:52;10.48;;;6.10;;
77432;SDS011;66752;48.576;8.876;2023-04-06T00:47:18;10.82;;;6.15;;
77432;SDS011;66752;48.576;8.876;2023-04-06T00:49:44;9.20;;;5.82;;
77432;SDS011;66752;48.576;8.876;2023-04-06T00:52:10;11.35;;;5.97;;
77432;SDS011;66752;48.576;8.876;2023-04-06T00:54:36;10.68;;;5.88;;
77432;SDS011;66752;48.576;8.876;2023-04-06T00:57:02;8.98;;;5.43;;
77432;SDS011;66752;48.576;8.876;2023-04-06T00:59:28;12.02;;;6.05;;
77432;SDS011;66752;48.576;8.876;2023-04-06T01:01:54;11.40;;;6.18;;
77432;SDS011;66752;48.576;8.876;2023-04-06T01:04:20;12.48;;;6.22;;
77432;SDS011;66752;48.576;8.876;2023-04-06T01:06:47;12.45;;;6.35;;
77432;SDS011;66752;48.576;8.876;2023-04-06T01:09:13;15.13;;;6.22;;
77432;SDS011;66752;48.576;8.876;2023-04-06T01:11:39;12.25;;;6.15;;
77432;SDS011;66752;48.576;8.876;2023-04-06T01:14:05;11.50;;;6.95;;
77432;SDS011;66752;48.576;8.876;2023-04-06T01:16:31;12.63;;;6.63;;
77432;SDS011;66752;48.576;8.876;2023-04-06T01:18:57;12.95;;;7.22;;
77432;SDS011;66752;48.576;8.876;2023-04-06T01:21:23;12.18;;;6.95;;
77432;SDS011;66752;48.576;8.876;2023-04-06T01:23:50;12.35;;;6.93;;
77432;SDS011;66752;48.576;8.876;2023-04-06T01:26:16;13.27;;;6.32;;
77432;SDS011;66752;48.576;8.876;2023-04-06T01:28:42;11.75;;;6.63;;
77432;SDS011;66752;48.576;8.876;2023-04-06T01:31:09;9.50;;;5.95;;
77432;SDS011;66752;48.576;8.876;2023-04-06T01:33:35;11.48;;;6.25;;
77432;SDS011;66752;48.576;8.876;2023-04-06T01:36:02;11.38;;;6.20;;
77432;SDS011;66752;48.576;8.876;2023-04-06T01:38:28;11.50;;;6.03;;
77432;SDS011;66752;48.576;8.876;2023-04-06T01:40:54;13.68;;;6.18;;
77432;SDS011;66752;48.576;8.876;2023-04-06T01:43:20;11.25;;;5.80;;
77432;SDS011;66752;48.576;8.876;2023-04-06T01:45:46;11.43;;;6.30;;
77432;SDS011;66752;48.576;8.876;2023-04-06T01:48:12;10.65;;;6.15;;
77432;SDS011;66752;48.576;8.876;2023-04-06T01:50:38;11.95;;;5.80;;
77432;SDS011;66752;48.576;8.876;2023-04-06T01:53:04;9.35;;;5.40;;
77432;SDS011;66752;48.576;8.876;2023-04-06T01:55:30;10.98;;;6.57;;
77432;SDS011;66752;48.576;8.876;2023-04-06T01:57:56;13.18;;;6.97;;
77432;SDS011;66752;48.576;8.876;2023-04-06T02:00:22;13.43;;;6.47;;
77432;SDS011;66752;48.576;8.876;2023-04-06T02:02:48;10.07;;;5.85;;
77432;SDS011;66752;48.576;8.876;2023-04-06T02:05:14;12.55;;;6.68;;
77432;SDS011;66752;48.576;8.876;2023-04-06T02:07:40;11.52;;;6.40;;
77432;SDS011;66752;48.576;8.876;2023-04-06T02:10:11;12.02;;;6.18;;
77432;SDS011;66752;48.576;8.876;2023-04-06T02:12:37;23.98;;;8.85;;
77432;SDS011;66752;48.576;8.876;2023-04-06T02:15:03;14.68;;;8.10;;
77432;SDS011;66752;48.576;8.876;2023-04-06T02:17:29;11.93;;;6.72;;
77432;SDS011;66752;48.576;8.876;2023-04-06T02:19:55;11.45;;;6.00;;
77432;SDS011;66752;48.576;8.876;2023-04-06T02:22:21;10.30;;;6.28;;
77432;SDS011;66752;48.576;8.876;2023-04-06T02:24:47;9.75;;;5.10;;
77432;SDS011;66752;48.576;8.876;2023-04-06T02:27:13;9.48;;;5.65;;
77432;SDS011;66752;48.576;8.876;2023-04-06T02:29:39;10.52;;;5.55;;
77432;SDS011;66752;48.576;8.876;2023-04-06T02:32:05;12.10;;;5.53;;
77432;SDS011;66752;48.576;8.876;2023-04-06T02:34:31;12.90;;;6.15;;
77432;SDS011;66752;48.576;8.876;2023-04-06T02:36:57;11.13;;;6.43;;
77432;SDS011;66752;48.576;8.876;2023-04-06T02:39:23;10.55;;;6.30;;
77432;SDS011;66752;48.576;8.876;2023-04-06T02:41:49;14.52;;;6.78;;
77432;SDS011;66752;48.576;8.876;2023-04-06T02:44:15;10.75;;;6.07;;
77432;SDS011;66752;48.576;8.876;2023-04-06T02:46:41;11.13;;;5.93;;
77432;SDS011;66752;48.576;8.876;2023-04-06T02:49:07;13.35;;;6.65;;
77432;SDS011;66752;48.576;8.876;2023-04-06T02:51:33;11.80;;;5.95;;
77432;SDS011;66752;48.576;8.876;2023-04-06T02:53:59;12.75;;;5.90;;
77432;SDS011;66752;48.576;8.876;2023-04-06T02:56:25;10.57;;;5.50;;
77432;SDS011;66752;48.576;8.876;2023-04-06T02:58:51;12.15;;;5.80;;
77432;SDS011;66752;48.576;8.876;2023-04-06T03:01:17;12.25;;;6.32;;
77432;SDS011;66752;48.576;8.876;2023-04-06T03:03:43;12.52;;;6.13;;
77432;SDS011;66752;48.576;8.876;2023-04-06T03:06:09;11.90;;;6.47;;
77432;SDS011;66752;48.576;8.876;2023-04-06T03:08:35;11.10;;;6.72;;
77432;SDS011;66752;48.576;8.876;2023-04-06T03:11:01;10.10;;;5.93;;
77432;SDS011;66752;48.576;8.876;2023-04-06T03:13:27;15.05;;;6.93;;
77432;SDS011;66752;48.576;8.876;2023-04-06T03:15:53;10.60;;;5.90;;
77432;SDS011;66752;48.576;8.876;2023-04-06T03:18:23;12.05;;;7.07;;
77432;SDS011;66752;48.576;8.876;2023-04-06T03:20:49;10.60;;;6.15;;
77432;SDS011;66752;48.576;8.876;2023-04-06T03:23:16;15.07;;;7.35;;
77432;SDS011;66752;48.576;8.876;2023-04-06T03:25:41;14.27;;;6.22;;
77432;SDS011;66752;48.576;8.876;2023-04-06T03:28:07;12.23;;;6.60;;
77432;SDS011;66752;48.576;8.876;2023-04-06T03:30:34;11.30;;;6.20;;
77432;SDS011;66752;48.576;8.876;2023-04-06T03:33:00;13.35;;;6.22;;
77432;SDS011;66752;48.576;8.876;2023-04-06T03:35:26;12.25;;;6.35;;
77432;SDS011;66752;48.576;8.876;2023-04-06T03:37:52;9.88;;;5.35;;
77432;SDS011;66752;48.576;8.876;2023-04-06T03:40:18;13.35;;;6.68;;
77432;SDS011;66752;48.576;8.876;2023-04-06T03:42:44;12.48;;;7.00;;
77432;SDS011;66752;48.576;8.876;2023-04-06T03:45:10;11.73;;;6.15;;
77432;SDS011;66752;48.576;8.876;2023-04-06T03:47:37;10.48;;;5.72;;
77432;SDS011;66752;48.576;8.876;2023-04-06T03:50:03;11.75;;;6.45;;
77432;SDS011;66752;48.576;8.876;2023-04-06T03:52:29;11.23;;;5.93;;
77432;SDS011;66752;48.576;8.876;2023-04-06T03:54:55;10.13;;;5.50;;
77432;SDS011;66752;48.576;8.876;2023-04-06T03:57:21;11.55;;;6.00;;
77432;SDS011;66752;48.576;8.876;2023-04-06T03:59:47;11.32;;;6.50;;
77432;SDS011;66752;48.576;8.876;2023-04-06T04:02:13;12.52;;;6.13;;
77432;SDS011;66752;48.576;8.876;2023-04-06T04:04:40;10.35;;;5.57;;
77432;SDS011;66752;48.576;8.876;2023-04-06T04:07:05;11.63;;;6.40;;
77432;SDS011;66752;48.576;8.876;2023-04-06T04:09:31;14.75;;;6.95;;
77432;SDS011;66752;48.576;8.876;2023-04-06T04:11:57;11.13;;;5.75;;
77432;SDS011;66752;48.576;8.876;2023-04-06T04:14:23;12.35;;;6.68;;
77432;SDS011;66752;48.576;8.876;2023-04-06T04:16:50;10.52;;;6.20;;
77432;SDS011;66752;48.576;8.876;2023-04-06T04:19:16;10.43;;;6.10;;
77432;SDS011;66752;48.576;8.876;2023-04-06T04:21:43;13.55;;;6.82;;
77432;SDS011;66752;48.576;8.876;2023-04-06T04:24:12;13.70;;;7.82;;
77432;SDS011;66752;48.576;8.876;2023-04-06T04:26:39;13.10;;;6.72;;
77432;SDS011;66752;48.576;8.876;2023-04-06T04:29:05;12.57;;;6.97;;
77432;SDS011;66752;48.576;8.876;2023-04-06T04:31:31;11.27;;;6.20;;
77432;SDS011;66752;48.576;8.876;2023-04-06T04:33:58;10.77;;;6.03;;
77432;SDS011;66752;48.576;8.876;2023-04-06T04:36:23;11.07;;;5.85;;
77432;SDS011;66752;48.576;8.876;2023-04-06T04:38:50;10.98;;;6.43;;
77432;SDS011;66752;48.576;8.876;2023-04-06T04:41:16;11.90;;;5.88;;
77432;SDS011;66752;48.576;8.876;2023-04-06T04:43:42;10.38;;;5.65;;
77432;SDS011;66752;48.576;8.876;2023-04-06T04:46:08;13.75;;;6.28;;
77432;SDS011;66752;48.576;8.876;2023-04-06T04:48:34;9.98;;;5.60;;
77432;SDS011;66752;48.576;8.876;2023-04-06T04:51:00;12.27;;;6.25;;
77432;SDS011;66752;48.576;8.876;2023-04-06T04:53:26;13.57;;;7.47;;
77432;SDS011;66752;48.576;8.876;2023-04-06T04:55:52;11.88;;;6.00;;
77432;SDS011;66752;48.576;8.876;2023-04-06T04:58:18;14.10;;;6.05;;
77432;SDS011;66752;48.576;8.876;2023-04-06T05:00:45;13.65;;;6.28;;
77432;SDS011;66752;48.576;8.876;2023-04-06T05:03:13;12.23;;;5.82;;
77432;SDS011;66752;48.576;8.876;2023-04-06T05:05:40;10.57;;;5.90;;
77432;SDS011;66752;48.576;8.876;2023-04-06T05:08:06;14.10;;;6.60;;
77432;SDS011;66752;48.576;8.876;2023-04-06T05:10:32;11.18;;;6.63;;
77432;SDS011;66752;48.576;8.876;2023-04-06T05:12:59;12.05;;;6.95;;
77432;SDS011;66752;48.576;8.876;2023-04-06T05:15:25;12.20;;;6.63;;
77432;SDS011;66752;48.576;8.876;2023-04-06T05:17:51;13.35;;;7.45;;
77432;SDS011;66752;48.576;8.876;2023-04-06T05:20:16;13.75;;;7.20;;
77432;SDS011;66752;48.576;8.876;2023-04-06T05:22:42;13.38;;;7.28;;
77432;SDS011;66752;48.576;8.876;2023-04-06T05:25:08;11.90;;;6.28;;
77432;SDS011;66752;48.576;8.876;2023-04-06T05:27:34;12.73;;;6.93;;
77432;SDS011;66752;48.576;8.876;2023-04-06T05:30:00;13.32;;;6.35;;
77432;SDS011;66752;48.576;8.876;2023-04-06T05:32:27;10.68;;;6.90;;
77432;SDS011;66752;48.576;8.876;2023-04-06T05:34:53;13.20;;;7.53;;
77432;SDS011;66752;48.576;8.876;2023-04-06T05:37:19;12.23;;;6.85;;
77432;SDS011;66752;48.576;8.876;2023-04-06T05:39:45;15.05;;;7.47;;
77432;SDS011;66752;48.576;8.876;2023-04-06T05:42:11;16.42;;;8.20;;
77432;SDS011;66752;48.576;8.876;2023-04-06T05:44:37;26.55;;;11.60;;
77432;SDS011;66752;48.576;8.876;2023-04-06T05:47:03;36.95;;;15.35;;
77432;SDS011;66752;48.576;8.876;2023-04-06T05:49:29;23.63;;;12.65;;
77432;SDS011;66752;48.576;8.876;2023-04-06T05:51:55;20.65;;;12.13;;
77432;SDS011;66752;48.576;8.876;2023-04-06T05:54:21;19.75;;;11.63;;
77432;SDS011;66752;48.576;8.876;2023-04-06T05:56:47;26.00;;;14.20;;
77432;SDS011;66752;48.576;8.876;2023-04-06T05:59:13;25.52;;;13.60;;
77432;SDS011;66752;48.576;8.876;2023-04-06T06:01:40;21.10;;;11.30;;
77432;SDS011;66752;48.576;8.876;2023-04-06T06:04:06;24.55;;;10.85;;
77432;SDS011;66752;48.576;8.876;2023-04-06T06:06:32;23.65;;;12.88;;
77432;SDS011;66752;48.576;8.876;2023-04-06T06:08:58;19.75;;;11.93;;
77432;SDS011;66752;48.576;8.876;2023-04-06T06:11:25;20.88;;;10.57;;
77432;SDS011;66752;48.576;8.876;2023-04-06T06:13:51;15.90;;;8.70;;
77432;SDS011;66752;48.576;8.876;2023-04-06T06:16:18;16.63;;;9.32;;
77432;SDS011;66752;48.576;8.876;2023-04-06T06:18:44;15.48;;;8.02;;
77432;SDS011;66752;48.576;8.876;2023-04-06T06:21:10;17.23;;;9.20;;
77432;SDS011;66752;48.576;8.876;2023-04-06T06:23:39;15.82;;;8.18;;
77432;SDS011;66752;48.576;8.876;2023-04-06T06:26:05;15.63;;;8.43;;
77432;SDS011;66752;48.576;8.876;2023-04-06T06:28:31;12.52;;;7.05;;
77432;SDS011;66752;48.576;8.876;2023-04-06T06:30:57;16.00;;;7.55;;
77432;SDS011;66752;48.576;8.876;2023-04-06T06:33:23;13.85;;;7.68;;
77432;SDS011;66752;48.576;8.876;2023-04-06T06:35:51;12.55;;;6.95;;
77432;SDS011;66752;48.576;8.876;2023-04-06T06:38:17;12.43;;;7.10;;
77432;SDS011;66752;48.576;8.876;2023-04-06T06:40:43;14.70;;;8.00;;
77432;SDS011;66752;48.576;8.876;2023-04-06T06:43:09;14.43;;;8.20;;
77432;SDS011;66752;48.576;8.876;2023-04-06T06:45:35;19.20;;;8.88;;
77432;SDS011;66752;48.576;8.876;2023-04-06T06:48:01;13.55;;;7.97;;
77432;SDS011;66752;48.576;8.876;2023-04-06T06:50:27;14.98;;;8.25;;
77432;SDS011;66752;48.576;8.876;2023-04-06T06:52:53;14.20;;;8.23;;
77432;SDS011;66752;48.576;8.876;2023-04-06T06:55:19;14.35;;;8.43;;
77432;SDS011;66752;48.576;8.876;2023-04-06T06:57:45;13.60;;;7.95;;
77432;SDS011;66752;48.576;8.876;2023-04-06T07:00:11;14.52;;;8.20;;
77432;SDS011;66752;48.576;8.876;2023-04-06T07:02:38;13.25;;;8.18;;
77432;SDS011;66752;48.576;8.876;2023-04-06T07:05:04;12.23;;;7.32;;
77432;SDS011;66752;48.576;8.876;2023-04-06T07:07:31;14.20;;;7.68;;
77432;SDS011;66752;48.576;8.876;2023-04-06T07:09:58;13.70;;;7.35;;
77432;SDS011;66752;48.576;8.876;2023-04-06T07:12:24;14.23;;;7.50;;
77432;SDS011;66752;48.576;8.876;2023-04-06T07:14:50;15.32;;;7.20;;
77432;SDS011;66752;48.576;8.876;2023-04-06T07:17:16;13.93;;;7.72;;
77432;SDS011;66752;48.576;8.876;2023-04-06T07:19:42;17.75;;;8.70;;
77432;SDS011;66752;48.576;8.876;2023-04-06T07:22:08;15.52;;;7.65;;
77432;SDS011;66752;48.576;8.876;2023-04-06T07:24:34;15.98;;;7.35;;
77432;SDS011;66752;48.576;8.876;2023-04-06T07:27:00;11.80;;;7.82;;
77432;SDS011;66752;48.576;8.876;2023-04-06T07:29:26;17.10;;;7.30;;
77432;SDS011;66752;48.576;8.876;2023-04-06T07:31:53;12.07;;;6.50;;
77432;SDS011;66752;48.576;8.876;2023-04-06T07:34:19;14.82;;;6.40;;
77432;SDS011;66752;48.576;8.876;2023-04-06T07:36:45;14.27;;;8.48;;
77432;SDS011;66752;48.576;8.876;2023-04-06T07:39:11;16.00;;;8.38;;
77432;SDS011;66752;48.576;8.876;2023-04-06T07:41:37;12.93;;;7.60;;
77432;SDS011;66752;48.576;8.876;2023-04-06T07:44:03;13.38;;;7.13;;
77432;SDS011;66752;48.576;8.876;2023-04-06T07:46:29;15.93;;;8.30;;
77432;SDS011;66752;48.576;8.876;2023-04-06T07:48:59;14.90;;;7.63;;
77432;SDS011;66752;48.576;8.876;2023-04-06T07:51:26;14.18;;;7.60;;
77432;SDS011;66752;48.576;8.876;2023-04-06T07:53:52;11.88;;;7.10;;
77432;SDS011;66752;48.576;8.876;2023-04-06T07:56:18;12.73;;;7.32;;
77432;SDS011;66752;48.576;8.876;2023-04-06T07:58:45;14.60;;;7.45;;
77432;SDS011;66752;48.576;8.876;2023-04-06T08:01:11;14.73;;;7.47;;
77432;SDS011;66752;48.576;8.876;2023-04-06T08:03:37;12.43;;;7.60;;
77432;SDS011;66752;48.576;8.876;2023-04-06T08:06:03;13.88;;;7.15;;
77432;SDS011;66752;48.576;8.876;2023-04-06T08:08:30;12.93;;;7.93;;
77432;SDS011;66752;48.576;8.876;2023-04-06T08:10:56;15.48;;;8.02;;
77432;SDS011;66752;48.576;8.876;2023-04-06T08:13:22;16.77;;;7.32;;
77432;SDS011;66752;48.576;8.876;2023-04-06T08:15:48;14.60;;;8.55;;
77432;SDS011;66752;48.576;8.876;2023-04-06T08:18:14;15.10;;;8.40;;
77432;SDS011;66752;48.576;8.876;2023-04-06T08:20:40;15.30;;;8.52;;
77432;SDS011;66752;48.576;8.876;2023-04-06T08:23:06;10.90;;;7.43;;
77432;SDS011;66752;48.576;8.876;2023-04-06T08:25:34;11.40;;;7.88;;
77432;SDS011;66752;48.576;8.876;2023-04-06T08:28:01;13.30;;;9.25;;
77432;SDS011;66752;48.576;8.876;2023-04-06T08:30:27;14.20;;;8.20;;
77432;SDS011;66752;48.576;8.876;2023-04-06T08:32:53;12.98;;;7.97;;
77432;SDS011;66752;48.576;8.876;2023-04-06T08:35:19;12.48;;;7.40;;
77432;SDS011;66752;48.576;8.876;2023-04-06T08:37:45;12.18;;;7.70;;
77432;SDS011;66752;48.576;8.876;2023-04-06T08:40:11;14.20;;;8.18;;
77432;SDS011;66752;48.576;8.876;2023-04-06T08:42:39;11.75;;;7.78;;
77432;SDS011;66752;48.576;8.876;2023-04-06T08:45:09;12.18;;;7.22;;
77432;SDS011;66752;48.576;8.876;2023-04-06T08:47:38;11.15;;;7.50;;
77432;SDS011;66752;48.576;8.876;2023-04-06T08:50:04;16.35;;;8.48;;
77432;SDS011;66752;48.576;8.876;2023-04-06T08:52:31;15.20;;;7.85;;
77432;SDS011;66752;48.576;8.876;2023-04-06T08:54:58;13.27;;;8.20;;
77432;SDS011;66752;48.576;8.876;2023-04-06T08:57:24;13.13;;;8.02;;
77432;SDS011;66752;48.576;8.876;2023-04-06T08:59:51;12.32;;;7.75;;
77432;SDS011;66752;48.576;8.876;2023-04-06T09:02:18;12.18;;;7.93;;
77432;SDS011;66752;48.576;8.876;2023-04-06T09:04:45;16.02;;;8.88;;
77432;SDS011;66752;48.576;8.876;2023-04-06T09:07:11;14.10;;;8.32;;
77432;SDS011;66752;48.576;8.876;2023-04-06T09:09:37;15.20;;;8.10;;
77432;SDS011;66752;48.576;8.876;2023-04-06T09:12:08;10.85;;;7.47;;
77432;SDS011;66752;48.576;8.876;2023-04-06T09:14:37;16.33;;;8.88;;
77432;SDS011;66752;48.576;8.876;2023-04-06T09:17:04;12.43;;;7.45;;
77432;SDS011;66752;48.576;8.876;2023-04-06T09:19:30;12.93;;;8.07;;
77432;SDS011;66752;48.576;8.876;2023-04-06T09:22:03;14.18;;;8.23;;
77432;SDS011;66752;48.576;8.876;2023-04-06T09:24:39;12.55;;;8.52;;
77432;SDS011;66752;48.576;8.876;2023-04-06T09:27:05;13.40;;;7.47;;
77432;SDS011;66752;48.576;8.876;2023-04-06T09:29:31;14.43;;;8.52;;
77432;SDS011;66752;48.576;8.876;2023-04-06T09:32:01;17.17;;;9.18;;
77432;SDS011;66752;48.576;8.876;2023-04-06T09:34:28;14.52;;;8.50;;
77432;SDS011;66752;48.576;8.876;2023-04-06T09:36:53;16.98;;;9.60;;
77432;SDS011;66752;48.576;8.876;2023-04-06T09:39:21;11.38;;;6.97;;
77432;SDS011;66752;48.576;8.876;2023-04-06T09:41:51;13.05;;;8.43;;
77432;SDS011;66752;48.576;8.876;2023-04-06T09:44:17;10.77;;;6.65;;
77432;SDS011;66752;48.576;8.876;2023-04-06T09:46:44;15.38;;;8.95;;
77432;SDS011;66752;48.576;8.876;2023-04-06T09:49:10;14.77;;;8.27;;
77432;SDS011;66752;48.576;8.876;2023-04-06T09:51:38;13.40;;;7.78;;
77432;SDS011;66752;48.576;8.876;2023-04-06T09:54:04;15.07;;;8.13;;
77432;SDS011;66752;48.576;8.876;2023-04-06T09:59:07;15.02;;;8.73;;
77432;SDS011;66752;48.576;8.876;2023-04-06T10:01:34;13.02;;;7.05;;
77432;SDS011;66752;48.576;8.876;2023-04-06T10:04:20;9.40;;;5.15;;
77432;SDS011;66752;48.576;8.876;2023-04-06T10:06:47;11.35;;;6.75;;
77432;SDS011;66752;48.576;8.876;2023-04-06T10:09:17;10.93;;;7.00;;
77432;SDS011;66752;48.576;8.876;2023-04-06T10:11:43;12.00;;;6.32;;
77432;SDS011;66752;48.576;8.876;2023-04-06T10:14:10;13.00;;;6.30;;
77432;SDS011;66752;48.576;8.876;2023-04-06T10:23:57;12.32;;;7.00;;
77432;SDS011;66752;48.576;8.876;2023-04-06T10:26:24;12.73;;;6.47;;
77432;SDS011;66752;48.576;8.876;2023-04-06T10:28:50;8.35;;;5.55;;
77432;SDS011;66752;48.576;8.876;2023-04-06T10:31:23;10.07;;;6.00;;
77432;SDS011;66752;48.576;8.876;2023-04-06T10:33:54;10.18;;;6.10;;
77432;SDS011;66752;48.576;8.876;2023-04-06T10:36:24;8.90;;;5.72;;
77432;SDS011;66752;48.576;8.876;2023-04-06T10:38:55;9.80;;;5.88;;
77432;SDS011;66752;48.576;8.876;2023-04-06T10:41:22;9.73;;;4.25;;
77432;SDS011;66752;48.576;8.876;2023-04-06T10:43:54;10.15;;;5.18;;
77432;SDS011;66752;48.576;8.876;2023-04-06T10:46:24;12.13;;;6.38;;
77432;SDS011;66752;48.576;8.876;2023-04-06T10:48:51;9.57;;;5.97;;
77432;SDS011;66752;48.576;8.876;2023-04-06T10:51:17;11.32;;;6.13;;
77432;SDS011;66752;48.576;8.876;2023-04-06T10:56:10;10.00;;;5.85;;
77432;SDS011;66752;48.576;8.876;2023-04-06T10:58:45;11.20;;;6.47;;
77432;SDS011;66752;48.576;8.876;2023-04-06T11:01:11;11.38;;;6.00;;
77432;SDS011;66752;48.576;8.876;2023-04-06T11:03:47;9.70;;;5.45;;
77432;SDS011;66752;48.576;8.876;2023-04-06T11:06:23;10.43;;;5.40;;
77432;SDS011;66752;48.576;8.876;2023-04-06T11:08:49;8.30;;;4.93;;
77432;SDS011;66752;48.576;8.876;2023-04-06T11:11:16;8.45;;;4.82;;
77432;SDS011;66752;48.576;8.876;2023-04-06T11:16:12;10.00;;;5.82;;
77432;SDS011;66752;48.576;8.876;2023-04-06T11:18:38;10.18;;;6.55;;
77432;SDS011;66752;48.576;8.876;2023-04-06T11:21:11;12.93;;;6.72;;
77432;SDS011;66752;48.576;8.876;2023-04-06T11:23:37;11.13;;;5.65;;
77432;SDS011;66752;48.576;8.876;2023-04-06T11:26:03;9.55;;;5.82;;
77432;SDS011;66752;48.576;8.876;2023-04-06T11:28:29;12.90;;;6.55;;
77432;SDS011;66752;48.576;8.876;2023-04-06T11:30:55;13.20;;;6.38;;
77432;SDS011;66752;48.576;8.876;2023-04-06T11:33:21;8.73;;;5.30;;
77432;SDS011;66752;48.576;8.876;2023-04-06T11:35:48;8.57;;;5.80;;
77432;SDS011;66752;48.576;8.876;2023-04-06T11:38:14;12.38;;;5.78;;
77432;SDS011;66752;48.576;8.876;2023-04-06T11:40:40;8.93;;;5.35;;
77432;SDS011;66752;48.576;8.876;2023-04-06T11:43:06;9.40;;;5.60;;
77432;SDS011;66752;48.576;8.876;2023-04-06T11:45:41;9.52;;;4.25;;
77432;SDS011;66752;48.576;8.876;2023-04-06T11:48:17;10.32;;;5.75;;
77432;SDS011;66752;48.576;8.876;2023-04-06T11:50:43;8.82;;;4.78;;
77432;SDS011;66752;48.576;8.876;2023-04-06T11:53:11;7.88;;;4.75;;
77432;SDS011;66752;48.576;8.876;2023-04-06T11:55:37;9.35;;;5.07;;
77432;SDS011;66752;48.576;8.876;2023-04-06T11:58:04;9.98;;;5.35;;
77432;SDS011;66752;48.576;8.876;2023-04-06T12:00:36;8.93;;;5.88;;
77432;SDS011;66752;48.576;8.876;2023-04-06T12:03:02;9.13;;;5.38;;
77432;SDS011;66752;48.576;8.876;2023-04-06T12:05:28;8.38;;;5.30;;
77432;SDS011;66752;48.576;8.876;2023-04-06T12:07:54;10.68;;;5.38;;
77432;SDS011;66752;48.576;8.876;2023-04-06T12:10:20;8.23;;;5.25;;
77432;SDS011;66752;48.576;8.876;2023-04-06T12:12:46;9.23;;;5.03;;
77432;SDS011;66752;48.576;8.876;2023-04-06T12:15:12;9.05;;;4.90;;
77432;SDS011;66752;48.576;8.876;2023-04-06T12:17:38;9.10;;;5.40;;
77432;SDS011;66752;48.576;8.876;2023-04-06T12:20:04;9.50;;;5.13;;
77432;SDS011;66752;48.576;8.876;2023-04-06T12:22:30;8.90;;;5.05;;
77432;SDS011;66752;48.576;8.876;2023-04-06T12:24:56;10.38;;;5.75;;
77432;SDS011;66752;48.576;8.876;2023-04-06T12:27:22;8.75;;;4.40;;
77432;SDS011;66752;48.576;8.876;2023-04-06T12:29:48;8.63;;;4.45;;
77432;SDS011;66752;48.576;8.876;2023-04-06T12:32:14;8.75;;;5.38;;
77432;SDS011;66752;48.576;8.876;2023-04-06T12:34:40;10.20;;;5.60;;
77432;SDS011;66752;48.576;8.876;2023-04-06T12:37:06;8.30;;;4.78;;
77432;SDS011;66752;48.576;8.876;2023-04-06T12:39:32;7.72;;;4.75;;
77432;SDS011;66752;48.576;8.876;2023-04-06T12:41:57;7.50;;;4.40;;
77432;SDS011;66752;48.576;8.876;2023-04-06T12:44:23;8.60;;;4.95;;
77432;SDS011;66752;48.576;8.876;2023-04-06T12:46:49;10.32;;;5.03;;
77432;SDS011;66752;48.576;8.876;2023-04-06T12:49:16;8.10;;;4.57;;
77432;SDS011;66752;48.576;8.876;2023-04-06T12:51:43;8.73;;;3.78;;
77432;SDS011;66752;48.576;8.876;2023-04-06T12:54:10;8.68;;;5.15;;
77432;SDS011;66752;48.576;8.876;2023-04-06T12:56:36;8.75;;;4.72;;
77432;SDS011;66752;48.576;8.876;2023-04-06T12:59:02;9.27;;;4.75;;
77432;SDS011;66752;48.576;8.876;2023-04-06T13:01:28;8.48;;;5.40;;
77432;SDS011;66752;48.576;8.876;2023-04-06T13:03:55;8.55;;;5.32;;
77432;SDS011;66752;48.576;8.876;2023-04-06T13:06:22;10.07;;;5.57;;
77432;SDS011;66752;48.576;8.876;2023-04-06T13:08:48;10.27;;;5.13;;
77432;SDS011;66752;48.576;8.876;2023-04-06T13:11:15;10.57;;;5.57;;
77432;SDS011;66752;48.576;8.876;2023-04-06T13:13:41;11.43;;;5.13;;
77432;SDS011;66752;48.576;8.876;2023-04-06T13:16:08;9.48;;;5.68;;
77432;SDS011;66752;48.576;8.876;2023-04-06T13:18:34;10.07;;;6.10;;
77432;SDS011;66752;48.576;8.876;2023-04-06T13:21:01;10.15;;;4.65;;
77432;SDS011;66752;48.576;8.876;2023-04-06T13:23:27;8.07;;;5.20;;
77432;SDS011;66752;48.576;8.876;2023-04-06T13:25:57;9.73;;;5.10;;
77432;SDS011;66752;48.576;8.876;2023-04-06T13:28:23;12.98;;;5.88;;
77432;SDS011;66752;48.576;8.876;2023-04-06T13:30:49;9.63;;;5.30;;
77432;SDS011;66752;48.576;8.876;2023-04-06T13:33:15;8.38;;;5.18;;
77432;SDS011;66752;48.576;8.876;2023-04-06T13:35:44;8.93;;;4.95;;
77432;SDS011;66752;48.576;8.876;2023-04-06T13:38:10;9.30;;;5.13;;
77432;SDS011;66752;48.576;8.876;2023-04-06T13:40:39;9.02;;;5.82;;
77432;SDS011;66752;48.576;8.876;2023-04-06T13:43:06;9.00;;;5.47;;
77432;SDS011;66752;48.576;8.876;2023-04-06T13:45:31;9.73;;;5.40;;
77432;SDS011;66752;48.576;8.876;2023-04-06T13:47:57;8.52;;;4.93;;
77432;SDS011;66752;48.576;8.876;2023-04-06T13:50:26;9.20;;;5.60;;
77432;SDS011;66752;48.576;8.876;2023-04-06T13:52:52;10.82;;;6.40;;
77432;SDS011;66752;48.576;8.876;2023-04-06T13:55:18;8.90;;;4.95;;
77432;SDS011;66752;48.576;8.876;2023-04-06T13:57:44;9.98;;;5.72;;
77432;SDS011;66752;48.576;8.876;2023-04-06T14:00:11;10.00;;;5.47;;
77432;SDS011;66752;48.576;8.876;2023-04-06T14:02:38;9.38;;;4.95;;
77432;SDS011;66752;48.576;8.876;2023-04-06T14:05:04;10.93;;;5.68;;
77432;SDS011;66752;48.576;8.876;2023-04-06T14:07:30;10.63;;;5.82;;
77432;SDS011;66752;48.576;8.876;2023-04-06T14:09:56;11.25;;;5.55;;
77432;SDS011;66752;48.576;8.876;2023-04-06T14:12:22;10.05;;;5.25;;
77432;SDS011;66752;48.576;8.876;2023-04-06T14:14:48;8.80;;;5.45;;
77432;SDS011;66752;48.576;8.876;2023-04-06T14:17:14;8.38;;;5.15;;
77432;SDS011;66752;48.576;8.876;2023-04-06T14:19:40;14.48;;;6.85;;
77432;SDS011;66752;48.576;8.876;2023-04-06T14:22:07;19.52;;;8.18;;
77432;SDS011;66752;48.576;8.876;2023-04-06T14:24:33;11.45;;;5.55;;
77432;SDS011;66752;48.576;8.876;2023-04-06T14:27:00;34.70;;;12.90;;
77432;SDS011;66752;48.576;8.876;2023-04-06T14:29:27;12.68;;;5.80;;
77432;SDS011;66752;48.576;8.876;2023-04-06T14:31:53;7.38;;;4.47;;
77432;SDS011;66752;48.576;8.876;2023-04-06T14:34:24;10.10;;;4.90;;
77432;SDS011;66752;48.576;8.876;2023-04-06T14:36:50;8.10;;;4.95;;
77432;SDS011;66752;48.576;8.876;2023-04-06T14:39:16;7.72;;;4.18;;
77432;SDS011;66752;48.576;8.876;2023-04-06T14:41:42;7.78;;;4.68;;
77432;SDS011;66752;48.576;8.876;2023-04-06T14:44:08;8.40;;;4.63;;
77432;SDS011;66752;48.576;8.876;2023-04-06T14:46:37;8.57;;;5.05;;